createdAt,value
2022-12-05T00:02:40.181Z,0.21
2022-12-05T00:07:42.193Z,0.02
2022-12-05T00:12:45.524Z,-0.02
2022-12-05T00:17:47.536Z,0.21
2022-12-05T00:22:49.445Z,0.07
2022-12-05T00:27:52.669Z,0.18
2022-12-05T00:32:54.552Z,0.23
2022-12-05T00:37:56.484Z,0.44
2022-12-05T00:42:59.723Z,0.27
2022-12-05T00:48:01.635Z,0.29
2022-12-05T00:53:03.565Z,0.27
2022-12-05T00:58:06.809Z,0.40
2022-12-05T01:03:08.765Z,0.36
2022-12-05T01:08:10.779Z,0.39
2022-12-05T01:13:14.062Z,0.45
2022-12-05T01:18:16.187Z,0.72
2022-12-05T01:23:18.165Z,0.87
2022-12-05T01:28:21.578Z,0.56
2022-12-05T01:33:23.614Z,0.46
2022-12-05T01:38:25.538Z,0.45
2022-12-05T01:43:29.529Z,0.56
2022-12-05T01:48:35.365Z,0.44
2022-12-05T01:53:37.754Z,1.72
2022-12-05T01:58:42.944Z,1.02
2022-12-05T02:03:47.905Z,1.39
2022-12-05T02:08:51.728Z,1.92
2022-12-05T02:14:08.718Z,1.56
2022-12-05T02:19:38.874Z,2.28
2022-12-05T02:25:10.491Z,1.25
2022-12-05T02:30:15.952Z,1.05
2022-12-05T02:35:30.526Z,0.73
2022-12-05T02:40:41.488Z,0.98
2022-12-05T02:45:48.633Z,1.22
2022-12-05T02:50:52.491Z,1.04
2022-12-05T02:55:54.731Z,1.15
2022-12-05T03:00:58.692Z,0.94
2022-12-05T03:06:04.421Z,1.22
2022-12-05T03:11:07.090Z,1.04
2022-12-05T03:16:14.881Z,1.87
2022-12-05T03:21:25.401Z,2.07
2022-12-05T03:26:38.442Z,1.72
2022-12-05T03:31:46.136Z,1.49
2022-12-05T03:36:52.582Z,1.29
2022-12-05T03:42:00.992Z,1.29
2022-12-05T03:47:11.707Z,0.90
2022-12-05T03:52:18.618Z,1.04
2022-12-05T03:57:24.303Z,1.10
2022-12-05T04:02:31.920Z,0.93
2022-12-05T04:07:37.856Z,0.77
2022-12-05T04:12:41.502Z,1.38
2022-12-05T04:17:53.505Z,1.06
2022-12-05T04:22:56.265Z,0.88
2022-12-05T04:28:06.174Z,1.09
2022-12-05T04:33:14.536Z,1.40
2022-12-05T04:38:21.595Z,1.36
2022-12-05T04:43:27.211Z,1.52
2022-12-05T04:48:31.287Z,2.06
2022-12-05T04:53:33.814Z,2.50
2022-12-05T04:58:35.771Z,1.93
2022-12-05T05:03:44.215Z,1.56
2022-12-05T05:08:49.516Z,1.38
2022-12-05T05:13:52.107Z,0.88
2022-12-05T05:18:55.810Z,0.88
2022-12-05T05:23:58.363Z,0.99
2022-12-05T05:29:00.322Z,0.85
2022-12-05T05:34:09.339Z,0.42
2022-12-05T05:39:14.885Z,0.12
2022-12-05T05:44:16.845Z,0.41
2022-12-05T05:49:20.153Z,0.07
2022-12-05T05:54:22.085Z,0.18
2022-12-05T05:59:23.986Z,0.24
2022-12-05T06:04:27.294Z,0.41
2022-12-05T06:09:29.229Z,0.32
2022-12-05T06:14:31.229Z,0.16
2022-12-05T06:19:34.494Z,0.28
2022-12-05T06:24:36.456Z,0.22
2022-12-05T06:29:38.448Z,-0.09
2022-12-05T06:34:41.758Z,-0.16
2022-12-05T06:39:43.671Z,0.13
2022-12-05T06:44:45.552Z,-0.19
2022-12-05T06:49:48.812Z,-0.20
2022-12-05T06:54:50.875Z,0.04
2022-12-05T07:00:12.759Z,0.16
2022-12-05T07:05:16.216Z,0.17
2022-12-05T07:10:18.450Z,-0.02
2022-12-05T07:15:20.371Z,0.21
2022-12-05T07:20:23.619Z,0.58
2022-12-05T07:25:26.221Z,0.41
2022-12-05T07:30:28.212Z,0.22
2022-12-05T07:35:31.543Z,0.36
2022-12-05T07:40:33.457Z,0.20
2022-12-05T07:45:35.684Z,0.19
2022-12-05T07:50:39.240Z,0.27
2022-12-05T07:55:41.133Z,-0.03
2022-12-05T08:00:43.172Z,-0.20
2022-12-05T08:05:46.592Z,0.33
2022-12-05T08:10:48.511Z,0.25
2022-12-05T08:15:50.415Z,0.31
2022-12-05T08:20:53.689Z,0.62
2022-12-05T08:25:55.672Z,0.76
2022-12-05T08:31:03.705Z,1.66
2022-12-05T08:36:09.420Z,1.56
2022-12-05T08:41:13.779Z,1.92
2022-12-05T08:46:15.797Z,3.60
2022-12-05T08:51:19.207Z,4.26
2022-12-05T08:56:26.502Z,3.57
2022-12-05T09:01:33.073Z,3.33
2022-12-05T09:06:36.750Z,3.42
2022-12-05T09:11:41.422Z,4.10
2022-12-05T09:16:44.455Z,4.47
2022-12-05T09:21:47.813Z,6.12
2022-12-05T09:26:50.269Z,6.98
2022-12-05T09:31:53.954Z,6.26
2022-12-05T09:37:10.551Z,5.13
2022-12-05T09:42:39.896Z,4.86
2022-12-05T09:47:51.913Z,4.65
2022-12-05T09:53:03.437Z,5.00
2022-12-05T09:58:14.724Z,5.90
2022-12-05T10:03:24.767Z,6.38
2022-12-05T10:08:33.478Z,7.13
2022-12-05T10:13:48.388Z,7.90
2022-12-05T10:18:55.569Z,8.21
2022-12-05T10:24:02.633Z,8.96
2022-12-05T10:29:17.897Z,8.89
2022-12-05T10:34:32.356Z,9.10
2022-12-05T10:39:35.866Z,9.42
2022-12-05T10:44:37.940Z,9.55
2022-12-05T10:49:40.119Z,9.75
2022-12-05T10:54:47.178Z,9.82
2022-12-05T10:59:49.224Z,9.32
2022-12-05T11:04:52.798Z,7.22
2022-12-05T11:09:56.760Z,6.41
2022-12-05T11:15:06.070Z,6.34
2022-12-05T11:20:36.521Z,7.36
2022-12-05T11:25:39.833Z,8.03
2022-12-05T11:30:56.760Z,8.34
2022-12-05T11:36:03.571Z,9.35
2022-12-05T11:41:22.576Z,9.94
2022-12-05T11:46:33.803Z,7.90
2022-12-05T11:51:40.169Z,6.76
2022-12-05T11:56:52.027Z,5.36
2022-12-05T12:02:03.623Z,4.32
2022-12-05T12:07:29.174Z,3.66
2022-12-05T12:12:43.092Z,3.61
2022-12-05T12:17:54.432Z,3.51
2022-12-05T12:23:14.066Z,3.57
2022-12-05T12:28:30.102Z,3.97
2022-12-05T12:33:40.190Z,4.52
2022-12-05T12:39:04.206Z,4.26
2022-12-05T12:44:23.701Z,4.57
2022-12-05T12:49:43.076Z,4.47
2022-12-05T12:55:05.215Z,4.46
2022-12-05T13:00:20.097Z,4.96
2022-12-05T13:05:31.060Z,5.09
2022-12-05T13:10:37.865Z,5.02
2022-12-05T13:15:47.150Z,5.04
2022-12-05T13:20:52.134Z,4.87
2022-12-05T13:25:56.774Z,4.82
2022-12-05T13:31:02.519Z,4.85
2022-12-05T13:36:27.086Z,4.92
2022-12-05T13:42:02.193Z,5.17
2022-12-05T13:47:07.516Z,5.01
2022-12-05T13:52:14.543Z,5.09
2022-12-05T13:57:48.027Z,5.14
2022-12-05T14:02:54.379Z,5.03
2022-12-05T14:08:03.439Z,5.28
2022-12-05T14:13:42.088Z,5.34
2022-12-05T14:18:52.189Z,5.30
2022-12-05T14:24:05.671Z,5.12
2022-12-05T14:29:25.301Z,5.26
2022-12-05T14:34:29.157Z,5.68
2022-12-05T14:39:36.010Z,5.45
2022-12-05T14:44:46.908Z,5.32
2022-12-05T14:49:54.591Z,5.25
2022-12-05T14:55:03.170Z,5.32
2022-12-05T15:00:07.934Z,5.25
2022-12-05T15:05:22.091Z,5.23
2022-12-05T15:10:28.358Z,5.35
2022-12-05T15:15:37.546Z,5.28
2022-12-05T15:20:46.088Z,5.25
2022-12-05T15:25:57.105Z,5.39
2022-12-05T15:31:01.518Z,5.35
2022-12-05T15:36:03.914Z,5.37
2022-12-05T15:41:16.815Z,5.29
2022-12-05T15:46:25.402Z,5.20
2022-12-05T15:51:33.181Z,5.15
2022-12-05T15:56:39.079Z,4.97
2022-12-05T16:01:44.671Z,4.76
2022-12-05T16:06:49.566Z,4.57
2022-12-05T16:11:56.352Z,4.31
2022-12-05T16:17:01.842Z,4.15
2022-12-05T16:22:07.935Z,4.13
2022-12-05T16:27:16.449Z,4.33
2022-12-05T16:32:23.047Z,4.25
2022-12-05T16:37:27.037Z,4.43
2022-12-05T16:42:30.079Z,4.45
2022-12-05T16:47:56.503Z,4.63
2022-12-05T16:53:03.696Z,4.63
2022-12-05T16:58:06.296Z,4.76
2022-12-05T17:03:33.428Z,4.81
2022-12-05T17:08:35.579Z,4.97
2022-12-05T17:13:37.778Z,4.97
2022-12-05T17:18:41.248Z,4.93
2022-12-05T17:23:47.514Z,4.86
2022-12-05T17:28:50.944Z,4.95
2022-12-05T17:33:54.805Z,5.16
2022-12-05T17:38:56.746Z,5.29
2022-12-05T17:43:58.678Z,5.23
2022-12-05T17:49:01.988Z,5.15
2022-12-05T17:54:04.212Z,5.12
2022-12-05T17:59:07.509Z,5.12
2022-12-05T18:04:10.884Z,5.25
2022-12-05T18:09:12.895Z,5.22
2022-12-05T18:14:14.865Z,5.17
2022-12-05T18:19:18.177Z,5.23
2022-12-05T18:24:20.188Z,5.21
2022-12-05T18:29:22.500Z,4.93
2022-12-05T18:34:25.940Z,5.08
2022-12-05T18:39:27.913Z,4.89
2022-12-05T18:44:30.395Z,5.00
2022-12-05T18:49:33.787Z,4.98
2022-12-05T18:54:35.930Z,4.94
2022-12-05T18:59:37.949Z,4.92
2022-12-05T19:04:41.228Z,5.03
2022-12-05T19:09:43.644Z,4.95
2022-12-05T19:14:47.409Z,4.94
2022-12-05T19:19:50.686Z,4.87
2022-12-05T19:24:52.665Z,4.86
2022-12-05T19:29:54.860Z,4.81
2022-12-05T19:34:58.458Z,4.71
2022-12-05T19:40:00.880Z,4.74
2022-12-05T19:45:08.187Z,4.72
2022-12-05T19:50:13.033Z,4.75
2022-12-05T19:55:15.033Z,4.78
2022-12-05T20:00:19.783Z,4.80
2022-12-05T20:05:23.187Z,4.59
2022-12-05T20:10:25.459Z,4.60
2022-12-05T20:15:28.490Z,4.63
2022-12-05T20:20:31.772Z,4.58
2022-12-05T20:25:35.813Z,4.60
2022-12-05T20:30:37.813Z,4.54
2022-12-05T20:35:41.184Z,4.82
2022-12-05T20:40:43.115Z,4.74
2022-12-05T20:45:45.174Z,4.78
2022-12-05T20:50:48.540Z,4.79
2022-12-05T20:55:50.772Z,4.91
2022-12-05T21:00:57.651Z,4.89
2022-12-05T21:06:06.775Z,4.87
2022-12-05T21:11:10.544Z,4.79
2022-12-05T21:16:14.524Z,4.50
2022-12-05T21:21:20.400Z,4.73
2022-12-05T21:26:24.041Z,4.87
2022-12-05T21:31:28.428Z,4.91
2022-12-05T21:36:34.034Z,4.79
2022-12-05T21:41:35.944Z,4.70
2022-12-05T21:46:39.036Z,4.89
2022-12-05T21:51:42.404Z,4.91
2022-12-05T21:56:45.200Z,4.84
2022-12-05T22:01:47.220Z,5.16
2022-12-05T22:06:50.556Z,5.01
2022-12-05T22:11:52.480Z,5.02
2022-12-05T22:16:54.401Z,4.92
2022-12-05T22:21:57.744Z,4.87
2022-12-05T22:26:59.667Z,5.20
2022-12-05T22:32:01.646Z,5.31
2022-12-05T22:37:04.916Z,5.25
2022-12-05T22:42:06.837Z,4.89
2022-12-05T22:47:08.845Z,5.05
2022-12-05T22:52:12.183Z,5.03
2022-12-05T22:57:14.110Z,4.87
2022-12-05T23:02:16.065Z,5.25
2022-12-05T23:07:19.316Z,5.28
2022-12-05T23:12:21.256Z,5.17
2022-12-05T23:17:23.187Z,5.19
2022-12-05T23:22:26.588Z,5.22
2022-12-05T23:27:28.510Z,5.39
2022-12-05T23:32:30.451Z,5.24
2022-12-05T23:37:33.719Z,5.16
2022-12-05T23:42:35.674Z,4.77
2022-12-05T23:47:37.639Z,4.91
2022-12-05T23:52:40.928Z,4.81
2022-12-05T23:57:42.869Z,4.72
